createdAt,value
2023-05-20T00:00:34.300Z,4.05
2023-05-20T00:03:01.121Z,4.80
2023-05-20T00:05:27.726Z,4.00
2023-05-20T00:07:54.302Z,3.83
2023-05-20T00:10:21.031Z,3.63
2023-05-20T00:12:47.559Z,4.07
2023-05-20T00:15:14.136Z,3.85
2023-05-20T00:17:40.798Z,4.50
2023-05-20T00:20:08.281Z,4.10
2023-05-20T00:22:34.855Z,4.65
2023-05-20T00:25:01.443Z,4.45
2023-05-20T00:27:27.971Z,4.15
2023-05-20T00:29:54.531Z,3.78
2023-05-20T00:32:21.159Z,3.63
2023-05-20T00:34:56.077Z,4.35
2023-05-20T00:37:22.612Z,2.63
2023-05-20T00:39:49.172Z,2.85
2023-05-20T00:42:22.469Z,4.72
2023-05-20T00:44:49.011Z,3.70
2023-05-20T00:47:16.886Z,3.45
2023-05-20T00:49:44.101Z,3.30
2023-05-20T00:52:10.758Z,3.50
2023-05-20T00:54:37.354Z,3.00
2023-05-20T00:57:06.513Z,3.40
2023-05-20T00:59:33.649Z,4.03
2023-05-20T01:02:00.241Z,3.97
2023-05-20T01:04:27.030Z,3.28
2023-05-20T01:06:53.694Z,3.88
2023-05-20T01:09:20.260Z,3.10
2023-05-20T01:11:55.216Z,2.63
2023-05-20T01:14:24.011Z,3.70
2023-05-20T01:16:51.880Z,4.55
2023-05-20T01:19:27.333Z,3.80
2023-05-20T01:21:54.295Z,3.10
2023-05-20T01:24:21.183Z,3.67
2023-05-20T01:26:48.557Z,3.50
2023-05-20T01:29:18.804Z,3.83
2023-05-20T01:31:46.820Z,3.63
2023-05-20T01:34:13.608Z,3.63
2023-05-20T01:36:40.785Z,3.80
2023-05-20T01:39:07.775Z,3.38
2023-05-20T01:41:35.754Z,2.95
2023-05-20T01:44:02.559Z,3.25
2023-05-20T01:46:32.522Z,3.95
2023-05-20T01:48:59.088Z,4.03
2023-05-20T01:51:25.697Z,3.33
2023-05-20T01:53:52.291Z,4.40
2023-05-20T01:56:18.920Z,4.03
2023-05-20T01:58:45.459Z,4.18
2023-05-20T02:01:12.011Z,3.42
2023-05-20T02:03:38.619Z,3.67
2023-05-20T02:06:05.231Z,3.90
2023-05-20T02:08:31.768Z,4.07
2023-05-20T02:10:58.319Z,3.53
2023-05-20T02:13:24.860Z,3.75
2023-05-20T02:15:51.540Z,3.90
2023-05-20T02:18:18.946Z,4.03
2023-05-20T02:20:45.635Z,3.58
2023-05-20T02:23:12.209Z,2.67
2023-05-20T02:25:38.830Z,3.22
2023-05-20T02:28:06.195Z,3.40
2023-05-20T02:30:32.765Z,3.63
2023-05-20T02:32:59.948Z,4.47
2023-05-20T02:35:26.520Z,3.85
2023-05-20T02:37:53.072Z,3.53
2023-05-20T02:40:19.614Z,3.25
2023-05-20T02:42:46.842Z,3.95
2023-05-20T02:45:13.413Z,3.55
2023-05-20T02:47:40.070Z,3.83
2023-05-20T02:50:07.230Z,3.03
2023-05-20T02:52:34.230Z,4.35
2023-05-20T02:55:01.208Z,3.67
2023-05-20T02:57:28.455Z,3.72
2023-05-20T02:59:55.365Z,3.85
2023-05-20T03:02:23.600Z,3.58
2023-05-20T03:04:50.835Z,3.60
2023-05-20T03:07:19.832Z,3.75
2023-05-20T03:09:46.421Z,3.78
2023-05-20T03:12:12.982Z,4.65
2023-05-20T03:14:39.540Z,3.50
2023-05-20T03:17:06.102Z,3.88
2023-05-20T03:19:32.684Z,4.10
2023-05-20T03:21:59.268Z,4.28
2023-05-20T03:24:25.832Z,4.07
2023-05-20T03:26:53.424Z,4.38
2023-05-20T03:29:20.002Z,3.50
2023-05-20T03:31:46.642Z,3.53
2023-05-20T03:34:13.224Z,3.22
2023-05-20T03:36:39.781Z,4.28
2023-05-20T03:39:06.348Z,3.60
2023-05-20T03:41:32.946Z,4.03
2023-05-20T03:43:59.531Z,3.55
2023-05-20T03:46:26.110Z,3.30
2023-05-20T03:48:52.673Z,4.28
2023-05-20T03:51:19.232Z,3.67
2023-05-20T03:53:45.746Z,3.40
2023-05-20T03:56:12.293Z,4.22
2023-05-20T03:58:38.876Z,4.20
2023-05-20T04:01:05.717Z,4.13
2023-05-20T04:03:32.564Z,4.65
2023-05-20T04:05:59.267Z,5.00
2023-05-20T04:08:29.059Z,3.92
2023-05-20T04:10:56.117Z,4.13
2023-05-20T04:13:25.353Z,4.05
2023-05-20T04:15:53.293Z,5.15
2023-05-20T04:18:19.928Z,5.72
2023-05-20T04:20:46.708Z,4.88
2023-05-20T04:23:13.262Z,4.85
2023-05-20T04:25:41.424Z,5.32
2023-05-20T04:28:09.315Z,5.50
2023-05-20T04:30:35.880Z,5.90
2023-05-20T04:33:03.765Z,6.35
2023-05-20T04:35:30.594Z,5.72
2023-05-20T04:37:57.200Z,5.97
2023-05-20T04:40:23.722Z,5.53
2023-05-20T04:42:50.492Z,6.50
2023-05-20T04:45:17.100Z,6.05
2023-05-20T04:47:44.591Z,6.10
2023-05-20T04:50:11.811Z,5.93
2023-05-20T04:52:43.283Z,6.63
2023-05-20T04:55:10.553Z,6.53
2023-05-20T04:57:40.082Z,6.63
2023-05-20T05:00:07.979Z,6.00
2023-05-20T05:02:35.063Z,6.30
2023-05-20T05:05:01.808Z,5.72
2023-05-20T05:07:28.420Z,6.38
2023-05-20T05:09:54.953Z,6.60
2023-05-20T05:12:21.483Z,6.63
2023-05-20T05:14:48.037Z,5.55
2023-05-20T05:17:14.602Z,6.20
2023-05-20T05:19:41.122Z,6.28
2023-05-20T05:22:07.731Z,5.43
2023-05-20T05:24:34.247Z,7.35
2023-05-20T05:27:01.192Z,5.75
2023-05-20T05:29:27.710Z,6.30
2023-05-20T05:31:54.315Z,5.45
2023-05-20T05:34:21.007Z,6.65
2023-05-20T05:36:47.597Z,6.28
2023-05-20T05:39:14.140Z,6.72
2023-05-20T05:41:40.672Z,6.38
2023-05-20T05:44:07.402Z,6.22
2023-05-20T05:46:34.087Z,5.50
2023-05-20T05:49:00.635Z,6.18
2023-05-20T05:51:28.649Z,6.78
2023-05-20T05:53:55.202Z,6.75
2023-05-20T05:56:21.953Z,7.38
2023-05-20T05:58:48.780Z,7.63
2023-05-20T06:01:15.416Z,7.35
2023-05-20T06:03:42.208Z,5.68
2023-05-20T06:06:08.855Z,6.30
2023-05-20T06:08:35.403Z,7.07
2023-05-20T06:11:01.954Z,7.40
2023-05-20T06:13:28.562Z,7.20
2023-05-20T06:15:55.072Z,6.97
2023-05-20T06:18:21.611Z,6.05
2023-05-20T06:20:54.425Z,6.05
2023-05-20T06:23:21.207Z,6.63
2023-05-20T06:25:48.807Z,6.40
2023-05-20T06:28:15.474Z,5.30
2023-05-20T06:30:42.130Z,5.07
2023-05-20T06:33:08.872Z,6.18
2023-05-20T06:35:35.824Z,5.03
2023-05-20T06:38:02.703Z,6.30
2023-05-20T06:40:29.366Z,4.60
2023-05-20T06:42:56.021Z,6.05
2023-05-20T06:45:22.573Z,4.85
2023-05-20T06:47:50.166Z,5.25
2023-05-20T06:50:16.778Z,4.75
2023-05-20T06:52:43.286Z,5.40
2023-05-20T06:55:09.946Z,5.25
2023-05-20T06:57:36.503Z,5.18
2023-05-20T07:00:06.186Z,5.18
2023-05-20T07:02:33.799Z,5.03
2023-05-20T07:05:00.373Z,4.90
2023-05-20T07:07:26.912Z,3.85
2023-05-20T07:09:54.831Z,4.50
2023-05-20T07:12:21.381Z,4.68
2023-05-20T07:14:47.946Z,4.60
2023-05-20T07:17:14.487Z,4.75
2023-05-20T07:19:41.125Z,4.70
2023-05-20T07:22:07.744Z,4.70
2023-05-20T07:24:34.365Z,4.53
2023-05-20T07:27:00.927Z,4.55
2023-05-20T07:29:27.581Z,4.78
2023-05-20T07:31:54.209Z,4.72
2023-05-20T07:34:20.842Z,4.07
2023-05-20T07:36:47.411Z,3.92
2023-05-20T07:39:15.347Z,4.63
2023-05-20T07:41:42.112Z,4.07
2023-05-20T07:44:08.917Z,3.75
2023-05-20T07:46:35.747Z,4.45
2023-05-20T07:49:02.417Z,4.75
2023-05-20T07:51:28.960Z,3.78
2023-05-20T07:53:55.611Z,4.60
2023-05-20T07:56:22.201Z,4.72
2023-05-20T07:59:06.871Z,5.07
2023-05-20T08:01:33.506Z,4.60
2023-05-20T08:04:00.337Z,4.38
2023-05-20T08:06:29.462Z,4.32
2023-05-20T08:08:56.450Z,4.05
2023-05-20T08:11:23.016Z,4.70
2023-05-20T08:13:50.049Z,4.13
2023-05-20T08:16:16.712Z,4.32
2023-05-20T08:18:43.334Z,3.92
2023-05-20T08:21:10.138Z,5.38
2023-05-20T08:23:40.151Z,4.70
2023-05-20T08:26:07.087Z,4.93
2023-05-20T08:28:33.641Z,4.68
2023-05-20T08:31:01.863Z,4.80
2023-05-20T08:33:28.493Z,3.90
2023-05-20T08:35:55.058Z,4.28
2023-05-20T08:38:21.594Z,5.88
2023-05-20T08:40:52.236Z,4.13
2023-05-20T08:43:18.810Z,4.60
2023-05-20T08:45:45.378Z,5.97
2023-05-20T08:48:11.962Z,4.45
2023-05-20T08:50:38.965Z,5.55
2023-05-20T08:53:05.533Z,4.85
2023-05-20T08:55:42.252Z,5.15
2023-05-20T08:58:09.691Z,4.35
2023-05-20T09:00:36.960Z,5.40
2023-05-20T09:03:04.378Z,4.93
2023-05-20T09:05:31.517Z,5.32
2023-05-20T09:08:11.408Z,5.93
2023-05-20T09:10:41.911Z,5.32
2023-05-20T09:13:09.247Z,6.55
2023-05-20T09:15:36.146Z,5.40
2023-05-20T09:18:03.718Z,5.00
2023-05-20T09:20:31.715Z,5.80
2023-05-20T09:23:02.088Z,5.47
2023-05-20T09:25:29.515Z,5.25
2023-05-20T09:27:56.224Z,4.88
2023-05-20T09:30:23.590Z,5.32
2023-05-20T09:32:53.906Z,5.07
2023-05-20T09:35:21.386Z,5.30
2023-05-20T09:37:48.117Z,5.80
2023-05-20T09:40:15.399Z,6.28
2023-05-20T09:43:02.305Z,6.13
2023-05-20T09:45:28.985Z,5.78
2023-05-20T09:47:57.048Z,6.68
2023-05-20T09:50:24.756Z,5.63
2023-05-20T09:52:51.907Z,5.53
2023-05-20T09:55:19.393Z,5.22
2023-05-20T09:57:46.123Z,5.22
2023-05-20T10:00:14.480Z,4.97
2023-05-20T10:02:45.154Z,4.93
2023-05-20T10:05:17.449Z,4.65
2023-05-20T10:07:47.781Z,5.60
2023-05-20T10:10:37.578Z,5.93
2023-05-20T10:13:22.582Z,5.60
2023-05-20T10:16:09.886Z,5.45
2023-05-20T10:18:54.862Z,5.53
2023-05-20T10:21:24.653Z,6.10
2023-05-20T10:23:51.907Z,6.20
2023-05-20T10:26:19.002Z,5.03
2023-05-20T10:28:46.623Z,4.70
2023-05-20T10:31:21.916Z,5.45
2023-05-20T10:33:48.749Z,5.85
2023-05-20T10:36:26.360Z,4.95
2023-05-20T10:38:56.777Z,4.90
2023-05-20T10:41:27.431Z,5.82
2023-05-20T10:44:03.986Z,4.78
2023-05-20T10:46:40.063Z,4.88
2023-05-20T10:49:22.273Z,4.07
2023-05-20T10:51:51.693Z,4.43
2023-05-20T10:54:18.279Z,4.43
2023-05-20T10:56:52.108Z,4.45
2023-05-20T10:59:18.671Z,5.45
2023-05-20T11:01:46.535Z,4.43
2023-05-20T11:04:14.049Z,5.15
2023-05-20T11:06:49.833Z,5.50
2023-05-20T11:09:16.569Z,5.00
2023-05-20T11:11:43.172Z,5.32
2023-05-20T11:14:13.706Z,5.43
2023-05-20T11:16:40.826Z,4.53
2023-05-20T11:19:08.527Z,5.30
2023-05-20T11:21:35.240Z,4.88
2023-05-20T11:24:01.869Z,4.72
2023-05-20T11:26:29.325Z,4.80
2023-05-20T11:28:56.487Z,4.55
2023-05-20T11:31:24.677Z,4.63
2023-05-20T11:33:52.260Z,4.47
2023-05-20T11:36:27.587Z,4.28
2023-05-20T11:38:57.072Z,4.65
2023-05-20T11:41:25.312Z,4.82
2023-05-20T11:44:01.235Z,5.07
2023-05-20T11:46:28.120Z,5.15
2023-05-20T11:48:55.208Z,4.72
2023-05-20T11:51:27.203Z,4.75
2023-05-20T11:53:54.012Z,5.22
2023-05-20T11:56:22.055Z,4.63
2023-05-20T11:58:48.716Z,5.13
2023-05-20T12:01:22.223Z,5.53
2023-05-20T12:03:49.898Z,5.25
2023-05-20T12:06:19.828Z,5.25
2023-05-20T12:08:47.485Z,5.35
2023-05-20T12:11:14.416Z,5.15
2023-05-20T12:13:41.149Z,5.03
2023-05-20T12:16:07.847Z,5.32
2023-05-20T12:18:34.552Z,5.20
2023-05-20T12:21:01.472Z,4.93
2023-05-20T12:23:30.766Z,4.53
2023-05-20T12:25:57.300Z,5.05
2023-05-20T12:28:23.868Z,5.38
2023-05-20T12:30:50.419Z,5.13
2023-05-20T12:33:16.954Z,4.85
2023-05-20T12:35:43.762Z,4.68
2023-05-20T12:38:10.352Z,4.18
2023-05-20T12:40:37.401Z,4.88
2023-05-20T12:43:04.998Z,5.05
2023-05-20T12:45:31.608Z,4.13
2023-05-20T12:47:58.426Z,4.63
2023-05-20T12:50:26.007Z,5.22
2023-05-20T12:52:52.626Z,4.47
2023-05-20T12:55:19.299Z,5.45
2023-05-20T12:57:46.137Z,7.85
2023-05-20T13:00:13.064Z,7.18
2023-05-20T13:02:40.519Z,7.10
2023-05-20T13:05:07.223Z,5.97
2023-05-20T13:07:34.016Z,5.57
2023-05-20T13:10:00.635Z,5.75
2023-05-20T13:12:27.164Z,6.30
2023-05-20T13:14:53.706Z,6.07
2023-05-20T13:17:20.247Z,7.53
2023-05-20T13:19:46.922Z,5.07
2023-05-20T13:22:13.441Z,6.57
2023-05-20T13:24:39.974Z,5.47
2023-05-20T13:27:06.597Z,6.78
2023-05-20T13:29:33.146Z,6.43
2023-05-20T13:32:01.734Z,6.97
2023-05-20T13:34:28.871Z,7.20
2023-05-20T13:36:55.467Z,6.97
2023-05-20T13:39:22.007Z,6.95
2023-05-20T13:41:48.617Z,7.57
2023-05-20T13:44:15.174Z,7.47
2023-05-20T13:46:41.770Z,7.82
2023-05-20T13:49:08.428Z,7.63
2023-05-20T13:51:35.082Z,7.40
2023-05-20T13:54:01.633Z,7.28
2023-05-20T13:56:28.535Z,7.93
2023-05-20T13:58:55.051Z,7.65
2023-05-20T14:01:23.697Z,6.55
2023-05-20T14:03:50.493Z,7.05
2023-05-20T14:06:18.958Z,6.72
2023-05-20T14:08:46.215Z,8.13
2023-05-20T14:11:13.025Z,7.60
2023-05-20T14:13:39.549Z,7.15
2023-05-20T14:16:06.340Z,7.70
2023-05-20T14:18:32.986Z,6.32
2023-05-20T14:20:59.818Z,5.70
2023-05-20T14:23:26.370Z,7.90
2023-05-20T14:25:53.027Z,8.00
2023-05-20T14:28:19.596Z,8.15
2023-05-20T14:30:46.174Z,5.80
2023-05-20T14:33:12.830Z,6.22
2023-05-20T14:35:39.458Z,7.20
2023-05-20T14:38:06.989Z,7.57
2023-05-20T14:40:33.812Z,7.97
2023-05-20T14:43:00.479Z,7.22
2023-05-20T14:45:26.992Z,7.10
2023-05-20T14:47:53.651Z,7.68
2023-05-20T14:50:20.206Z,7.13
2023-05-20T14:52:46.758Z,7.32
2023-05-20T14:55:13.283Z,7.13
2023-05-20T14:57:39.845Z,7.82
2023-05-20T15:00:06.932Z,6.65
2023-05-20T15:02:33.627Z,7.88
2023-05-20T15:05:00.214Z,6.38
2023-05-20T15:07:26.797Z,7.90
2023-05-20T15:09:53.424Z,7.20
2023-05-20T15:12:20.029Z,6.57
2023-05-20T15:14:46.838Z,7.80
2023-05-20T15:17:13.491Z,7.15
2023-05-20T15:19:41.775Z,6.60
2023-05-20T15:22:08.660Z,7.28
2023-05-20T15:24:35.200Z,7.35
2023-05-20T15:27:01.786Z,7.50
2023-05-20T15:29:28.341Z,7.43
2023-05-20T15:31:54.903Z,7.85
2023-05-20T15:34:21.499Z,7.55
2023-05-20T15:36:48.100Z,7.88
2023-05-20T15:39:14.665Z,7.28
2023-05-20T15:41:42.513Z,7.18
2023-05-20T15:44:09.173Z,6.75
2023-05-20T15:46:36.014Z,7.15
2023-05-20T15:49:02.764Z,7.53
2023-05-20T15:51:29.333Z,7.43
2023-05-20T15:53:56.048Z,6.47
2023-05-20T15:56:23.113Z,7.53
2023-05-20T15:58:49.814Z,6.05
2023-05-20T16:01:16.433Z,6.32
2023-05-20T16:03:44.378Z,5.82
2023-05-20T16:06:12.759Z,7.75
2023-05-20T16:08:40.799Z,7.25
2023-05-20T16:11:08.043Z,7.70
2023-05-20T16:13:34.609Z,6.70
2023-05-20T16:16:01.318Z,8.18
2023-05-20T16:18:31.084Z,7.90
2023-05-20T16:20:57.783Z,7.45
2023-05-20T16:23:24.574Z,7.00
2023-05-20T16:25:51.551Z,7.65
2023-05-20T16:28:18.260Z,6.93
2023-05-20T16:30:44.783Z,7.18
2023-05-20T16:33:13.337Z,6.72
2023-05-20T16:35:40.061Z,7.07
2023-05-20T16:38:06.710Z,6.70
2023-05-20T16:40:33.381Z,7.38
2023-05-20T16:43:00.561Z,7.38
2023-05-20T16:45:27.184Z,7.50
2023-05-20T16:47:53.909Z,6.70
2023-05-20T16:50:20.694Z,6.60
2023-05-20T16:52:47.261Z,7.13
2023-05-20T16:55:13.817Z,7.60
2023-05-20T16:57:40.854Z,7.82
2023-05-20T17:00:08.456Z,6.28
2023-05-20T17:02:35.261Z,7.38
2023-05-20T17:05:01.958Z,7.60
2023-05-20T17:07:28.474Z,6.97
2023-05-20T17:09:55.030Z,9.50
2023-05-20T17:12:21.766Z,6.47
2023-05-20T17:14:48.360Z,7.53
2023-05-20T17:17:15.172Z,7.47
2023-05-20T17:19:41.960Z,7.93
2023-05-20T17:22:08.626Z,7.57
2023-05-20T17:24:35.944Z,7.70
2023-05-20T17:27:03.750Z,7.28
2023-05-20T17:29:30.592Z,8.90
2023-05-20T17:31:57.187Z,8.40
2023-05-20T17:34:23.703Z,8.43
2023-05-20T17:36:50.265Z,8.50
2023-05-20T17:39:17.100Z,9.82
2023-05-20T17:41:44.225Z,8.88
2023-05-20T17:44:10.880Z,9.32
2023-05-20T17:46:37.506Z,10.27
2023-05-20T17:49:04.162Z,10.25
2023-05-20T17:51:31.882Z,10.85
2023-05-20T17:53:58.550Z,8.85
2023-05-20T17:56:25.242Z,10.48
2023-05-20T17:58:52.961Z,10.32
2023-05-20T18:01:20.807Z,9.65
2023-05-20T18:03:47.569Z,8.63
2023-05-20T18:06:14.216Z,9.60
2023-05-20T18:08:40.767Z,9.48
2023-05-20T18:11:07.353Z,8.23
2023-05-20T18:13:33.875Z,9.18
2023-05-20T18:16:00.777Z,8.55
2023-05-20T18:18:27.441Z,9.18
2023-05-20T18:20:53.948Z,8.80
2023-05-20T18:23:20.550Z,8.23
2023-05-20T18:25:47.124Z,9.05
2023-05-20T18:28:13.741Z,8.65
2023-05-20T18:30:40.284Z,7.93
2023-05-20T18:33:06.946Z,8.85
2023-05-20T18:35:33.553Z,8.00
2023-05-20T18:38:00.174Z,8.00
2023-05-20T18:40:28.249Z,8.60
2023-05-20T18:42:54.799Z,9.02
2023-05-20T18:45:21.972Z,8.32
2023-05-20T18:47:48.640Z,9.25
2023-05-20T18:50:15.256Z,8.50
2023-05-20T18:52:42.211Z,8.32
2023-05-20T18:55:08.873Z,7.60
2023-05-20T18:57:35.876Z,7.95
2023-05-20T19:00:02.871Z,7.13
2023-05-20T19:02:29.410Z,8.48
2023-05-20T19:04:56.167Z,8.82
2023-05-20T19:07:23.572Z,7.25
2023-05-20T19:09:52.073Z,9.57
2023-05-20T19:12:18.739Z,8.23
2023-05-20T19:14:46.637Z,8.30
2023-05-20T19:17:13.765Z,8.02
2023-05-20T19:19:40.588Z,8.27
2023-05-20T19:22:07.147Z,9.32
2023-05-20T19:24:33.672Z,7.22
2023-05-20T19:27:00.966Z,7.60
2023-05-20T19:29:27.536Z,8.73
2023-05-20T19:31:55.776Z,7.10
2023-05-20T19:34:22.680Z,6.75
2023-05-20T19:36:49.213Z,8.18
2023-05-20T19:39:15.882Z,9.35
2023-05-20T19:41:42.496Z,8.07
2023-05-20T19:44:09.053Z,6.88
2023-05-20T19:46:36.116Z,7.47
2023-05-20T19:49:02.836Z,7.10
2023-05-20T19:51:29.393Z,7.30
2023-05-20T19:53:56.092Z,14.82
2023-05-20T19:56:24.134Z,13.13
2023-05-20T19:58:51.610Z,9.45
2023-05-20T20:01:18.806Z,9.30
2023-05-20T20:03:46.178Z,7.80
2023-05-20T20:06:12.999Z,8.10
2023-05-20T20:08:39.643Z,8.38
2023-05-20T20:11:06.985Z,8.45
2023-05-20T20:13:33.790Z,7.00
2023-05-20T20:16:00.346Z,8.25
2023-05-20T20:18:27.398Z,8.63
2023-05-20T20:20:54.319Z,8.65
2023-05-20T20:23:21.028Z,9.43
2023-05-20T20:25:50.720Z,10.85
2023-05-20T20:28:17.298Z,8.88
2023-05-20T20:30:43.877Z,8.88
2023-05-20T20:33:10.448Z,8.63
2023-05-20T20:35:37.758Z,9.38
2023-05-20T20:38:09.928Z,11.20
2023-05-20T20:40:41.878Z,22.27
2023-05-20T20:43:09.228Z,10.90
2023-05-20T20:45:38.711Z,11.88
2023-05-20T20:48:08.134Z,50.85
2023-05-20T20:50:35.759Z,23.60
2023-05-20T20:53:02.479Z,12.18
2023-05-20T20:55:32.024Z,10.65
2023-05-20T20:58:02.784Z,10.15
2023-05-20T21:00:29.697Z,10.00
2023-05-20T21:02:56.457Z,9.07
2023-05-20T21:05:26.714Z,8.43
2023-05-20T21:07:58.381Z,8.73
2023-05-20T21:10:29.207Z,8.98
2023-05-20T21:12:59.024Z,8.82
2023-05-20T21:15:25.985Z,7.63
2023-05-20T21:17:52.707Z,9.63
2023-05-20T21:20:21.261Z,11.43
2023-05-20T21:22:48.408Z,10.07
2023-05-20T21:25:15.032Z,8.75
2023-05-20T21:27:41.598Z,9.15
2023-05-20T21:30:09.324Z,8.52
2023-05-20T21:32:35.922Z,9.77
2023-05-20T21:35:02.719Z,9.90
2023-05-20T21:37:29.252Z,8.38
2023-05-20T21:39:55.822Z,9.90
2023-05-20T21:42:22.452Z,11.50
2023-05-20T21:44:48.992Z,8.32
2023-05-20T21:47:15.870Z,8.55
2023-05-20T21:49:42.549Z,10.10
2023-05-20T21:52:09.088Z,8.68
2023-05-20T21:54:35.667Z,9.75
2023-05-20T21:57:02.937Z,9.40
2023-05-20T21:59:29.541Z,11.23
2023-05-20T22:01:58.171Z,9.82
2023-05-20T22:04:25.185Z,9.10
2023-05-20T22:06:51.978Z,9.23
2023-05-20T22:09:18.608Z,10.05
2023-05-20T22:11:45.294Z,8.30
2023-05-20T22:14:16.292Z,9.13
2023-05-20T22:16:46.816Z,10.00
2023-05-20T22:19:14.027Z,8.90
2023-05-20T22:21:50.334Z,11.20
2023-05-20T22:24:17.836Z,9.13
2023-05-20T22:26:44.656Z,9.32
2023-05-20T22:29:12.477Z,10.05
2023-05-20T22:31:39.295Z,8.45
2023-05-20T22:34:06.027Z,9.60
2023-05-20T22:36:34.375Z,9.55
2023-05-20T22:39:04.780Z,9.73
2023-05-20T22:41:31.499Z,8.65
2023-05-20T22:43:58.249Z,9.38
2023-05-20T22:46:25.198Z,8.85
2023-05-20T22:48:55.588Z,8.43
2023-05-20T22:51:22.312Z,9.30
2023-05-20T22:53:48.963Z,10.05
2023-05-20T22:56:15.606Z,9.55
2023-05-20T22:58:42.686Z,8.77
2023-05-20T23:01:09.540Z,8.52
2023-05-20T23:03:36.256Z,10.57
2023-05-20T23:06:02.820Z,8.32
2023-05-20T23:08:29.501Z,9.23
2023-05-20T23:10:56.156Z,10.07
2023-05-20T23:13:22.696Z,9.38
2023-05-20T23:15:49.292Z,9.65
2023-05-20T23:18:16.042Z,10.73
2023-05-20T23:20:42.680Z,9.10
2023-05-20T23:23:11.465Z,8.02
2023-05-20T23:25:38.655Z,8.90
2023-05-20T23:28:06.045Z,8.80
2023-05-20T23:30:32.562Z,9.05
2023-05-20T23:32:59.661Z,10.13
2023-05-20T23:35:26.325Z,9.73
2023-05-20T23:37:52.975Z,10.50
2023-05-20T23:40:19.565Z,9.70
2023-05-20T23:42:46.366Z,10.13
2023-05-20T23:45:13.230Z,8.88
2023-05-20T23:47:39.846Z,9.18
2023-05-20T23:50:06.629Z,10.50
2023-05-20T23:52:33.209Z,9.95
2023-05-20T23:55:00.348Z,11.25
2023-05-20T23:57:26.982Z,11.25
2023-05-20T23:59:53.539Z,9.95
